Terminal Aerodrome Forecast
Issued by NWS Upton, NY

Home | Current Version | Previous Version | Text Only | Print | Product List | Glossary On
Versions: 1 2 3 4 5 6 7 8 9 10 11 12 13 14 15 16 17 18 19 20 21 22 23 24
010
FTUS41 KOKX 092320
TAFBDR
TAF
KBDR 092320Z 1000/1024 VRB03KT P6SM SCT070 BKN150
     FM100300 VRB03KT P6SM FEW012 SCT025 BKN080
      TEMPO 1003/1006 2SM -SN SCT012 BKN020
     FM100600 VRB03KT 1SM -SN BR BKN010 OVC020
      TEMPO 1009/1013 1/2SM SN OVC005
     FM101600 28011KT P6SM SCT010 BKN025
     FM101900 27012G19KT P6SM BKN050=

USA.gov is the U.S. government's official web portal to all federal, state and local government web resources and services.